sensor_id;sensor_type;location;lat;lon;timestamp;P1;durP1;ratioP1;P2;durP2;ratioP2
9834;SDS011;69850;50.942;13.748;2023-06-01T00:01:19;7.05;;;4.13;;
9834;SDS011;69850;50.942;13.748;2023-06-01T00:04:41;7.25;;;4.30;;
9834;SDS011;69850;50.942;13.748;2023-06-01T00:08:02;8.35;;;3.28;;
9834;SDS011;69850;50.942;13.748;2023-06-01T00:11:24;5.10;;;3.55;;
9834;SDS011;69850;50.942;13.748;2023-06-01T00:14:48;6.85;;;3.55;;
9834;SDS011;69850;50.942;13.748;2023-06-01T00:18:08;9.18;;;3.78;;
9834;SDS011;69850;50.942;13.748;2023-06-01T00:21:32;6.55;;;3.30;;
9834;SDS011;69850;50.942;13.748;2023-06-01T00:24:55;9.13;;;3.85;;
9834;SDS011;69850;50.942;13.748;2023-06-01T00:28:16;7.85;;;4.28;;
9834;SDS011;69850;50.942;13.748;2023-06-01T00:31:37;7.40;;;3.83;;
9834;SDS011;69850;50.942;13.748;2023-06-01T00:34:58;6.15;;;3.55;;
9834;SDS011;69850;50.942;13.748;2023-06-01T00:38:19;5.15;;;3.67;;
9834;SDS011;69850;50.942;13.748;2023-06-01T00:41:40;8.50;;;3.90;;
9834;SDS011;69850;50.942;13.748;2023-06-01T00:45:01;7.32;;;3.80;;
9834;SDS011;69850;50.942;13.748;2023-06-01T00:48:22;6.97;;;4.20;;
9834;SDS011;69850;50.942;13.748;2023-06-01T00:51:43;8.02;;;3.78;;
9834;SDS011;69850;50.942;13.748;2023-06-01T00:55:04;7.45;;;4.18;;
9834;SDS011;69850;50.942;13.748;2023-06-01T00:58:25;5.20;;;3.60;;
9834;SDS011;69850;50.942;13.748;2023-06-01T01:01:47;6.43;;;3.45;;
9834;SDS011;69850;50.942;13.748;2023-06-01T01:05:08;6.65;;;3.75;;
9834;SDS011;69850;50.942;13.748;2023-06-01T01:08:34;8.43;;;3.90;;
9834;SDS011;69850;50.942;13.748;2023-06-01T01:30:07;5.85;;;4.10;;
9834;SDS011;69850;50.942;13.748;2023-06-01T01:33:28;7.55;;;4.03;;
9834;SDS011;69850;50.942;13.748;2023-06-01T01:36:49;4.88;;;3.40;;
9834;SDS011;69850;50.942;13.748;2023-06-01T01:40:10;8.70;;;4.50;;
9834;SDS011;69850;50.942;13.748;2023-06-01T01:43:31;6.28;;;3.85;;
9834;SDS011;69850;50.942;13.748;2023-06-01T01:46:53;10.43;;;4.07;;
9834;SDS011;69850;50.942;13.748;2023-06-01T01:50:15;7.28;;;4.00;;
9834;SDS011;69850;50.942;13.748;2023-06-01T01:53:39;6.40;;;4.20;;
9834;SDS011;69850;50.942;13.748;2023-06-01T01:57:03;7.13;;;4.03;;
9834;SDS011;69850;50.942;13.748;2023-06-01T02:00:25;12.00;;;3.88;;
9834;SDS011;69850;50.942;13.748;2023-06-01T02:03:46;5.93;;;3.92;;
9834;SDS011;69850;50.942;13.748;2023-06-01T02:07:07;7.30;;;4.40;;
9834;SDS011;69850;50.942;13.748;2023-06-01T02:10:28;6.93;;;3.92;;
9834;SDS011;69850;50.942;13.748;2023-06-01T02:13:50;7.40;;;4.35;;
9834;SDS011;69850;50.942;13.748;2023-06-01T02:17:10;10.13;;;3.75;;
9834;SDS011;69850;50.942;13.748;2023-06-01T02:20:31;7.63;;;4.05;;
9834;SDS011;69850;50.942;13.748;2023-06-01T02:23:52;9.48;;;3.80;;
9834;SDS011;69850;50.942;13.748;2023-06-01T02:27:12;7.10;;;3.78;;
9834;SDS011;69850;50.942;13.748;2023-06-01T02:30:33;5.78;;;3.38;;
9834;SDS011;69850;50.942;13.748;2023-06-01T02:33:54;5.80;;;3.40;;
9834;SDS011;69850;50.942;13.748;2023-06-01T02:37:15;6.03;;;3.65;;
9834;SDS011;69850;50.942;13.748;2023-06-01T02:40:37;7.25;;;4.22;;
9834;SDS011;69850;50.942;13.748;2023-06-01T02:43:58;4.63;;;3.60;;
9834;SDS011;69850;50.942;13.748;2023-06-01T02:47:19;4.53;;;3.45;;
9834;SDS011;69850;50.942;13.748;2023-06-01T02:50:40;6.13;;;3.67;;
9834;SDS011;69850;50.942;13.748;2023-06-01T02:54:01;5.38;;;3.65;;
9834;SDS011;69850;50.942;13.748;2023-06-01T02:57:21;6.55;;;4.15;;
9834;SDS011;69850;50.942;13.748;2023-06-01T03:00:48;6.32;;;4.30;;
9834;SDS011;69850;50.942;13.748;2023-06-01T03:04:11;7.88;;;4.47;;
9834;SDS011;69850;50.942;13.748;2023-06-01T03:07:33;12.40;;;4.53;;
9834;SDS011;69850;50.942;13.748;2023-06-01T03:11:03;7.18;;;4.07;;
9834;SDS011;69850;50.942;13.748;2023-06-01T03:14:28;7.22;;;4.30;;
9834;SDS011;69850;50.942;13.748;2023-06-01T03:17:49;6.88;;;4.03;;
9834;SDS011;69850;50.942;13.748;2023-06-01T03:21:11;7.38;;;4.20;;
9834;SDS011;69850;50.942;13.748;2023-06-01T03:24:31;6.93;;;4.07;;
9834;SDS011;69850;50.942;13.748;2023-06-01T03:27:56;5.80;;;4.15;;
9834;SDS011;69850;50.942;13.748;2023-06-01T03:31:17;7.43;;;4.00;;
9834;SDS011;69850;50.942;13.748;2023-06-01T03:34:39;7.97;;;3.80;;
9834;SDS011;69850;50.942;13.748;2023-06-01T03:38:00;6.53;;;3.90;;
9834;SDS011;69850;50.942;13.748;2023-06-01T03:41:21;6.13;;;3.70;;
9834;SDS011;69850;50.942;13.748;2023-06-01T03:44:42;7.20;;;3.38;;
9834;SDS011;69850;50.942;13.748;2023-06-01T03:48:03;4.50;;;3.10;;
9834;SDS011;69850;50.942;13.748;2023-06-01T03:51:24;4.78;;;3.50;;
9834;SDS011;69850;50.942;13.748;2023-06-01T03:54:44;6.05;;;3.45;;
9834;SDS011;69850;50.942;13.748;2023-06-01T03:58:19;5.55;;;3.35;;
9834;SDS011;69850;50.942;13.748;2023-06-01T04:01:40;4.32;;;2.80;;
9834;SDS011;69850;50.942;13.748;2023-06-01T04:05:02;5.28;;;3.15;;
9834;SDS011;69850;50.942;13.748;2023-06-01T04:08:28;5.72;;;3.22;;
9834;SDS011;69850;50.942;13.748;2023-06-01T04:11:49;7.20;;;3.47;;
9834;SDS011;69850;50.942;13.748;2023-06-01T04:15:11;9.02;;;4.78;;
9834;SDS011;69850;50.942;13.748;2023-06-01T04:18:32;3.67;;;2.65;;
9834;SDS011;69850;50.942;13.748;2023-06-01T04:21:56;5.22;;;3.05;;
9834;SDS011;69850;50.942;13.748;2023-06-01T04:25:16;7.57;;;4.53;;
9834;SDS011;69850;50.942;13.748;2023-06-01T04:28:38;7.68;;;4.97;;
9834;SDS011;69850;50.942;13.748;2023-06-01T04:32:04;5.40;;;2.53;;
9834;SDS011;69850;50.942;13.748;2023-06-01T04:35:25;6.70;;;2.60;;
9834;SDS011;69850;50.942;13.748;2023-06-01T04:38:47;5.82;;;3.28;;
9834;SDS011;69850;50.942;13.748;2023-06-01T04:42:11;5.10;;;2.72;;
9834;SDS011;69850;50.942;13.748;2023-06-01T04:45:34;5.43;;;2.80;;
9834;SDS011;69850;50.942;13.748;2023-06-01T04:48:58;5.95;;;3.20;;
9834;SDS011;69850;50.942;13.748;2023-06-01T04:52:21;6.25;;;2.80;;
9834;SDS011;69850;50.942;13.748;2023-06-01T04:55:43;7.05;;;2.90;;
9834;SDS011;69850;50.942;13.748;2023-06-01T04:59:04;6.00;;;2.78;;
9834;SDS011;69850;50.942;13.748;2023-06-01T05:02:25;6.28;;;2.90;;
9834;SDS011;69850;50.942;13.748;2023-06-01T05:05:47;7.13;;;3.10;;
9834;SDS011;69850;50.942;13.748;2023-06-01T05:09:08;8.43;;;4.60;;
9834;SDS011;69850;50.942;13.748;2023-06-01T05:12:29;13.10;;;3.22;;
9834;SDS011;69850;50.942;13.748;2023-06-01T05:15:50;8.55;;;2.60;;
9834;SDS011;69850;50.942;13.748;2023-06-01T05:19:11;6.28;;;2.80;;
9834;SDS011;69850;50.942;13.748;2023-06-01T05:22:33;5.57;;;2.90;;
9834;SDS011;69850;50.942;13.748;2023-06-01T05:25:54;6.63;;;3.00;;
9834;SDS011;69850;50.942;13.748;2023-06-01T05:29:22;5.32;;;2.72;;
9834;SDS011;69850;50.942;13.748;2023-06-01T05:32:43;5.38;;;2.75;;
9834;SDS011;69850;50.942;13.748;2023-06-01T05:36:06;4.95;;;2.75;;
9834;SDS011;69850;50.942;13.748;2023-06-01T05:39:27;4.47;;;3.03;;
9834;SDS011;69850;50.942;13.748;2023-06-01T05:42:48;7.13;;;3.08;;
9834;SDS011;69850;50.942;13.748;2023-06-01T05:46:09;5.72;;;2.85;;
9834;SDS011;69850;50.942;13.748;2023-06-01T05:49:31;6.00;;;3.17;;
9834;SDS011;69850;50.942;13.748;2023-06-01T05:52:52;6.43;;;3.22;;
9834;SDS011;69850;50.942;13.748;2023-06-01T05:56:13;8.43;;;3.03;;
9834;SDS011;69850;50.942;13.748;2023-06-01T05:59:34;9.25;;;3.10;;
9834;SDS011;69850;50.942;13.748;2023-06-01T06:02:55;4.38;;;2.83;;
9834;SDS011;69850;50.942;13.748;2023-06-01T06:06:15;4.50;;;2.60;;
9834;SDS011;69850;50.942;13.748;2023-06-01T06:09:36;4.10;;;2.70;;
9834;SDS011;69850;50.942;13.748;2023-06-01T06:12:56;7.90;;;3.05;;
9834;SDS011;69850;50.942;13.748;2023-06-01T06:16:17;7.03;;;3.40;;
9834;SDS011;69850;50.942;13.748;2023-06-01T06:19:37;8.98;;;3.15;;
9834;SDS011;69850;50.942;13.748;2023-06-01T06:22:58;5.18;;;3.10;;
9834;SDS011;69850;50.942;13.748;2023-06-01T06:26:19;6.75;;;2.90;;
9834;SDS011;69850;50.942;13.748;2023-06-01T06:29:39;9.95;;;3.00;;
9834;SDS011;69850;50.942;13.748;2023-06-01T06:33:00;7.80;;;3.20;;
9834;SDS011;69850;50.942;13.748;2023-06-01T06:36:20;8.98;;;3.05;;
9834;SDS011;69850;50.942;13.748;2023-06-01T06:39:41;5.03;;;2.88;;
9834;SDS011;69850;50.942;13.748;2023-06-01T06:43:01;5.03;;;2.60;;
9834;SDS011;69850;50.942;13.748;2023-06-01T06:46:22;5.00;;;2.72;;
9834;SDS011;69850;50.942;13.748;2023-06-01T06:49:43;5.93;;;3.58;;
9834;SDS011;69850;50.942;13.748;2023-06-01T06:53:03;8.93;;;3.17;;
9834;SDS011;69850;50.942;13.748;2023-06-01T06:56:24;6.95;;;3.20;;
9834;SDS011;69850;50.942;13.748;2023-06-01T06:59:45;5.45;;;3.00;;
9834;SDS011;69850;50.942;13.748;2023-06-01T07:03:06;6.47;;;2.80;;
9834;SDS011;69850;50.942;13.748;2023-06-01T07:06:27;7.93;;;3.08;;
9834;SDS011;69850;50.942;13.748;2023-06-01T07:09:48;5.88;;;2.80;;
9834;SDS011;69850;50.942;13.748;2023-06-01T07:13:09;4.97;;;2.97;;
9834;SDS011;69850;50.942;13.748;2023-06-01T07:16:29;8.75;;;3.05;;
9834;SDS011;69850;50.942;13.748;2023-06-01T07:19:50;8.50;;;3.22;;
9834;SDS011;69850;50.942;13.748;2023-06-01T07:23:10;5.00;;;2.83;;
9834;SDS011;69850;50.942;13.748;2023-06-01T07:26:32;5.22;;;3.17;;
9834;SDS011;69850;50.942;13.748;2023-06-01T07:29:53;7.22;;;3.00;;
9834;SDS011;69850;50.942;13.748;2023-06-01T07:33:16;5.10;;;3.08;;
9834;SDS011;69850;50.942;13.748;2023-06-01T07:36:36;4.78;;;2.88;;
9834;SDS011;69850;50.942;13.748;2023-06-01T07:39:57;4.65;;;2.90;;
9834;SDS011;69850;50.942;13.748;2023-06-01T07:43:17;7.20;;;3.05;;
9834;SDS011;69850;50.942;13.748;2023-06-01T07:46:38;7.38;;;2.97;;
9834;SDS011;69850;50.942;13.748;2023-06-01T07:49:58;6.35;;;2.75;;
9834;SDS011;69850;50.942;13.748;2023-06-01T07:53:20;5.95;;;2.92;;
9834;SDS011;69850;50.942;13.748;2023-06-01T07:56:40;12.52;;;3.13;;
9834;SDS011;69850;50.942;13.748;2023-06-01T08:00:03;6.07;;;3.10;;
9834;SDS011;69850;50.942;13.748;2023-06-01T08:03:30;8.32;;;3.20;;
9834;SDS011;69850;50.942;13.748;2023-06-01T08:06:53;6.53;;;3.00;;
9834;SDS011;69850;50.942;13.748;2023-06-01T08:10:14;8.93;;;3.38;;
9834;SDS011;69850;50.942;13.748;2023-06-01T08:13:35;9.43;;;2.97;;
9834;SDS011;69850;50.942;13.748;2023-06-01T08:16:56;8.02;;;3.15;;
9834;SDS011;69850;50.942;13.748;2023-06-01T08:20:17;6.47;;;3.17;;
9834;SDS011;69850;50.942;13.748;2023-06-01T08:23:41;6.70;;;3.20;;
9834;SDS011;69850;50.942;13.748;2023-06-01T08:27:02;6.32;;;2.63;;
9834;SDS011;69850;50.942;13.748;2023-06-01T08:30:25;7.78;;;3.30;;
9834;SDS011;69850;50.942;13.748;2023-06-01T08:33:46;7.55;;;3.42;;
9834;SDS011;69850;50.942;13.748;2023-06-01T08:37:08;6.20;;;3.05;;
9834;SDS011;69850;50.942;13.748;2023-06-01T08:40:29;4.60;;;3.00;;
9834;SDS011;69850;50.942;13.748;2023-06-01T08:43:58;7.18;;;3.42;;
9834;SDS011;69850;50.942;13.748;2023-06-01T08:47:19;6.68;;;4.07;;
9834;SDS011;69850;50.942;13.748;2023-06-01T08:50:39;6.55;;;3.30;;
9834;SDS011;69850;50.942;13.748;2023-06-01T08:54:00;5.20;;;2.92;;
9834;SDS011;69850;50.942;13.748;2023-06-01T08:57:23;7.00;;;2.90;;
9834;SDS011;69850;50.942;13.748;2023-06-01T09:00:46;4.75;;;3.05;;
9834;SDS011;69850;50.942;13.748;2023-06-01T09:04:11;8.68;;;3.40;;
9834;SDS011;69850;50.942;13.748;2023-06-01T09:07:33;6.55;;;3.08;;
9834;SDS011;69850;50.942;13.748;2023-06-01T09:10:54;4.28;;;2.63;;
9834;SDS011;69850;50.942;13.748;2023-06-01T09:14:21;6.35;;;2.90;;
9834;SDS011;69850;50.942;13.748;2023-06-01T09:17:47;7.70;;;2.75;;
9834;SDS011;69850;50.942;13.748;2023-06-01T09:21:12;5.60;;;2.85;;
9834;SDS011;69850;50.942;13.748;2023-06-01T09:24:34;7.65;;;2.95;;
9834;SDS011;69850;50.942;13.748;2023-06-01T09:27:55;6.05;;;3.00;;
9834;SDS011;69850;50.942;13.748;2023-06-01T09:31:35;3.55;;;2.47;;
9834;SDS011;69850;50.942;13.748;2023-06-01T09:35:00;6.13;;;2.45;;
9834;SDS011;69850;50.942;13.748;2023-06-01T09:38:21;7.70;;;2.00;;
9834;SDS011;69850;50.942;13.748;2023-06-01T09:45:18;3.72;;;2.10;;
9834;SDS011;69850;50.942;13.748;2023-06-01T09:48:40;6.93;;;1.98;;
9834;SDS011;69850;50.942;13.748;2023-06-01T09:55:24;5.13;;;2.70;;
9834;SDS011;69850;50.942;13.748;2023-06-01T09:58:45;13.98;;;2.30;;
9834;SDS011;69850;50.942;13.748;2023-06-01T10:02:08;20.80;;;2.80;;
9834;SDS011;69850;50.942;13.748;2023-06-01T10:05:32;5.78;;;2.20;;
9834;SDS011;69850;50.942;13.748;2023-06-01T10:08:53;2.97;;;1.63;;
9834;SDS011;69850;50.942;13.748;2023-06-01T10:12:14;4.53;;;1.65;;
9834;SDS011;69850;50.942;13.748;2023-06-01T10:15:35;5.13;;;2.33;;
9834;SDS011;69850;50.942;13.748;2023-06-01T10:18:57;5.03;;;1.98;;
9834;SDS011;69850;50.942;13.748;2023-06-01T10:22:17;5.28;;;1.95;;
9834;SDS011;69850;50.942;13.748;2023-06-01T10:25:39;5.97;;;2.00;;
9834;SDS011;69850;50.942;13.748;2023-06-01T10:29:03;6.68;;;4.60;;
9834;SDS011;69850;50.942;13.748;2023-06-01T10:35:57;3.65;;;1.58;;
9834;SDS011;69850;50.942;13.748;2023-06-01T10:39:24;4.00;;;1.70;;
9834;SDS011;69850;50.942;13.748;2023-06-01T10:42:44;5.05;;;2.00;;
9834;SDS011;69850;50.942;13.748;2023-06-01T10:57:08;12.40;;;2.05;;
9834;SDS011;69850;50.942;13.748;2023-06-01T11:00:39;2.58;;;1.45;;
9834;SDS011;69850;50.942;13.748;2023-06-01T11:04:00;3.38;;;2.30;;
9834;SDS011;69850;50.942;13.748;2023-06-01T11:07:38;2.92;;;1.35;;
9834;SDS011;69850;50.942;13.748;2023-06-01T11:11:02;4.82;;;2.17;;
9834;SDS011;69850;50.942;13.748;2023-06-01T11:14:27;1.95;;;1.13;;
9834;SDS011;69850;50.942;13.748;2023-06-01T11:17:51;6.00;;;2.40;;
9834;SDS011;69850;50.942;13.748;2023-06-01T11:21:17;4.88;;;2.40;;
9834;SDS011;69850;50.942;13.748;2023-06-01T11:24:41;6.38;;;2.67;;
9834;SDS011;69850;50.942;13.748;2023-06-01T11:28:05;8.30;;;2.80;;
9834;SDS011;69850;50.942;13.748;2023-06-01T11:31:25;3.75;;;1.77;;
9834;SDS011;69850;50.942;13.748;2023-06-01T11:34:46;4.43;;;2.38;;
9834;SDS011;69850;50.942;13.748;2023-06-01T11:38:08;4.63;;;1.63;;
9834;SDS011;69850;50.942;13.748;2023-06-01T11:41:29;5.15;;;1.73;;
9834;SDS011;69850;50.942;13.748;2023-06-01T11:44:57;2.83;;;1.33;;
9834;SDS011;69850;50.942;13.748;2023-06-01T11:48:18;7.88;;;2.83;;
9834;SDS011;69850;50.942;13.748;2023-06-01T11:51:39;5.30;;;2.53;;
9834;SDS011;69850;50.942;13.748;2023-06-01T11:55:03;4.30;;;2.38;;
9834;SDS011;69850;50.942;13.748;2023-06-01T11:58:27;4.45;;;2.40;;
9834;SDS011;69850;50.942;13.748;2023-06-01T12:01:50;6.68;;;2.70;;
9834;SDS011;69850;50.942;13.748;2023-06-01T12:05:12;2.97;;;2.28;;
9834;SDS011;69850;50.942;13.748;2023-06-01T12:08:34;4.25;;;2.58;;
9834;SDS011;69850;50.942;13.748;2023-06-01T12:11:55;5.68;;;3.05;;
9834;SDS011;69850;50.942;13.748;2023-06-01T12:15:17;4.50;;;2.40;;
9834;SDS011;69850;50.942;13.748;2023-06-01T12:18:38;4.53;;;2.47;;
9834;SDS011;69850;50.942;13.748;2023-06-01T12:21:59;4.60;;;2.10;;
9834;SDS011;69850;50.942;13.748;2023-06-01T12:25:19;4.88;;;2.38;;
9834;SDS011;69850;50.942;13.748;2023-06-01T12:28:50;10.02;;;3.05;;
9834;SDS011;69850;50.942;13.748;2023-06-01T12:32:14;4.72;;;2.45;;
9834;SDS011;69850;50.942;13.748;2023-06-01T12:35:47;5.95;;;2.45;;
9834;SDS011;69850;50.942;13.748;2023-06-01T12:39:09;6.30;;;2.65;;
9834;SDS011;69850;50.942;13.748;2023-06-01T12:42:39;4.53;;;2.65;;
9834;SDS011;69850;50.942;13.748;2023-06-01T12:46:01;4.72;;;2.25;;
9834;SDS011;69850;50.942;13.748;2023-06-01T12:49:22;3.70;;;2.58;;
9834;SDS011;69850;50.942;13.748;2023-06-01T12:52:44;7.00;;;2.30;;
9834;SDS011;69850;50.942;13.748;2023-06-01T12:56:07;3.88;;;2.05;;
9834;SDS011;69850;50.942;13.748;2023-06-01T12:59:28;8.52;;;3.17;;
9834;SDS011;69850;50.942;13.748;2023-06-01T13:02:49;4.70;;;2.60;;
9834;SDS011;69850;50.942;13.748;2023-06-01T13:06:10;3.88;;;2.10;;
9834;SDS011;69850;50.942;13.748;2023-06-01T13:09:31;5.35;;;2.80;;
9834;SDS011;69850;50.942;13.748;2023-06-01T13:12:51;3.90;;;1.77;;
9834;SDS011;69850;50.942;13.748;2023-06-01T13:16:15;5.20;;;2.53;;
9834;SDS011;69850;50.942;13.748;2023-06-01T13:19:35;4.13;;;2.75;;
9834;SDS011;69850;50.942;13.748;2023-06-01T13:22:56;4.03;;;1.90;;
9834;SDS011;69850;50.942;13.748;2023-06-01T13:26:17;6.75;;;3.60;;
9834;SDS011;69850;50.942;13.748;2023-06-01T13:29:38;6.38;;;3.40;;
9834;SDS011;69850;50.942;13.748;2023-06-01T13:32:58;6.20;;;3.55;;
9834;SDS011;69850;50.942;13.748;2023-06-01T13:36:19;6.35;;;2.90;;
9834;SDS011;69850;50.942;13.748;2023-06-01T13:39:40;3.35;;;2.78;;
9834;SDS011;69850;50.942;13.748;2023-06-01T13:43:01;7.80;;;3.50;;
9834;SDS011;69850;50.942;13.748;2023-06-01T13:46:21;8.32;;;3.05;;
9834;SDS011;69850;50.942;13.748;2023-06-01T13:49:44;3.10;;;1.80;;
9834;SDS011;69850;50.942;13.748;2023-06-01T13:53:05;4.20;;;1.80;;
9834;SDS011;69850;50.942;13.748;2023-06-01T13:56:26;5.47;;;3.35;;
9834;SDS011;69850;50.942;13.748;2023-06-01T13:59:47;4.95;;;3.30;;
9834;SDS011;69850;50.942;13.748;2023-06-01T14:03:07;8.48;;;4.72;;
9834;SDS011;69850;50.942;13.748;2023-06-01T14:06:28;6.07;;;3.70;;
9834;SDS011;69850;50.942;13.748;2023-06-01T14:09:49;5.10;;;1.63;;
9834;SDS011;69850;50.942;13.748;2023-06-01T14:13:09;8.05;;;5.05;;
9834;SDS011;69850;50.942;13.748;2023-06-01T14:16:30;7.55;;;3.88;;
9834;SDS011;69850;50.942;13.748;2023-06-01T14:19:50;4.80;;;2.95;;
9834;SDS011;69850;50.942;13.748;2023-06-01T14:23:12;6.18;;;3.88;;
9834;SDS011;69850;50.942;13.748;2023-06-01T14:26:33;8.82;;;5.32;;
9834;SDS011;69850;50.942;13.748;2023-06-01T14:29:53;5.30;;;2.78;;
9834;SDS011;69850;50.942;13.748;2023-06-01T14:33:14;7.43;;;4.47;;
9834;SDS011;69850;50.942;13.748;2023-06-01T14:36:35;13.80;;;6.35;;
9834;SDS011;69850;50.942;13.748;2023-06-01T14:39:56;4.07;;;2.80;;
9834;SDS011;69850;50.942;13.748;2023-06-01T14:43:17;9.70;;;5.53;;
9834;SDS011;69850;50.942;13.748;2023-06-01T14:46:37;11.48;;;6.72;;
9834;SDS011;69850;50.942;13.748;2023-06-01T14:49:58;10.10;;;6.32;;
9834;SDS011;69850;50.942;13.748;2023-06-01T14:53:19;5.50;;;3.13;;
9834;SDS011;69850;50.942;13.748;2023-06-01T14:56:39;9.63;;;6.80;;
9834;SDS011;69850;50.942;13.748;2023-06-01T15:00:02;10.93;;;6.45;;
9834;SDS011;69850;50.942;13.748;2023-06-01T15:03:25;15.05;;;7.15;;
9834;SDS011;69850;50.942;13.748;2023-06-01T15:06:46;12.82;;;7.65;;
9834;SDS011;69850;50.942;13.748;2023-06-01T15:10:07;9.05;;;5.10;;
9834;SDS011;69850;50.942;13.748;2023-06-01T15:13:29;11.75;;;6.78;;
9834;SDS011;69850;50.942;13.748;2023-06-01T15:16:50;10.07;;;6.15;;
9834;SDS011;69850;50.942;13.748;2023-06-01T15:20:11;9.60;;;5.13;;
9834;SDS011;69850;50.942;13.748;2023-06-01T15:23:32;7.18;;;3.45;;
9834;SDS011;69850;50.942;13.748;2023-06-01T15:26:52;8.70;;;5.03;;
9834;SDS011;69850;50.942;13.748;2023-06-01T15:30:13;11.43;;;5.40;;
9834;SDS011;69850;50.942;13.748;2023-06-01T15:33:33;5.72;;;3.17;;
9834;SDS011;69850;50.942;13.748;2023-06-01T15:36:54;4.72;;;2.42;;
9834;SDS011;69850;50.942;13.748;2023-06-01T15:40:15;5.00;;;3.83;;
9834;SDS011;69850;50.942;13.748;2023-06-01T15:43:36;5.05;;;3.40;;
9834;SDS011;69850;50.942;13.748;2023-06-01T15:46:56;6.32;;;3.67;;
9834;SDS011;69850;50.942;13.748;2023-06-01T15:50:17;6.60;;;3.63;;
9834;SDS011;69850;50.942;13.748;2023-06-01T15:53:38;7.10;;;2.80;;
9834;SDS011;69850;50.942;13.748;2023-06-01T15:56:59;3.95;;;2.42;;
9834;SDS011;69850;50.942;13.748;2023-06-01T16:00:20;3.63;;;2.33;;
9834;SDS011;69850;50.942;13.748;2023-06-01T16:03:41;7.07;;;4.20;;
9834;SDS011;69850;50.942;13.748;2023-06-01T16:07:01;6.78;;;3.67;;
9834;SDS011;69850;50.942;13.748;2023-06-01T16:10:22;5.90;;;3.58;;
9834;SDS011;69850;50.942;13.748;2023-06-01T16:13:43;5.25;;;3.45;;
9834;SDS011;69850;50.942;13.748;2023-06-01T16:17:04;4.88;;;2.80;;
9834;SDS011;69850;50.942;13.748;2023-06-01T16:20:24;7.93;;;4.70;;
9834;SDS011;69850;50.942;13.748;2023-06-01T16:23:45;6.00;;;3.90;;
9834;SDS011;69850;50.942;13.748;2023-06-01T16:27:06;8.52;;;5.68;;
9834;SDS011;69850;50.942;13.748;2023-06-01T16:30:27;8.95;;;5.00;;
9834;SDS011;69850;50.942;13.748;2023-06-01T16:33:48;7.07;;;4.95;;
9834;SDS011;69850;50.942;13.748;2023-06-01T16:37:09;8.20;;;5.60;;
9834;SDS011;69850;50.942;13.748;2023-06-01T16:40:29;11.40;;;5.18;;
9834;SDS011;69850;50.942;13.748;2023-06-01T16:43:50;8.10;;;5.28;;
9834;SDS011;69850;50.942;13.748;2023-06-01T16:47:11;9.38;;;4.70;;
9834;SDS011;69850;50.942;13.748;2023-06-01T16:50:31;9.82;;;4.88;;
9834;SDS011;69850;50.942;13.748;2023-06-01T16:53:53;9.98;;;4.25;;
9834;SDS011;69850;50.942;13.748;2023-06-01T16:57:13;4.18;;;3.20;;
9834;SDS011;69850;50.942;13.748;2023-06-01T17:00:34;3.88;;;2.75;;
9834;SDS011;69850;50.942;13.748;2023-06-01T17:03:55;4.43;;;2.95;;
9834;SDS011;69850;50.942;13.748;2023-06-01T17:07:15;3.25;;;2.60;;
9834;SDS011;69850;50.942;13.748;2023-06-01T17:10:36;5.10;;;3.33;;
9834;SDS011;69850;50.942;13.748;2023-06-01T17:13:56;9.43;;;3.70;;
9834;SDS011;69850;50.942;13.748;2023-06-01T17:17:17;6.93;;;3.60;;
9834;SDS011;69850;50.942;13.748;2023-06-01T17:20:39;6.50;;;3.90;;
9834;SDS011;69850;50.942;13.748;2023-06-01T17:24:00;8.10;;;4.05;;
9834;SDS011;69850;50.942;13.748;2023-06-01T17:27:21;8.65;;;4.80;;
9834;SDS011;69850;50.942;13.748;2023-06-01T17:30:41;8.13;;;4.93;;
9834;SDS011;69850;50.942;13.748;2023-06-01T17:34:02;8.95;;;4.93;;
9834;SDS011;69850;50.942;13.748;2023-06-01T17:37:23;9.93;;;4.78;;
9834;SDS011;69850;50.942;13.748;2023-06-01T17:40:43;7.18;;;4.20;;
9834;SDS011;69850;50.942;13.748;2023-06-01T17:44:05;6.15;;;4.65;;
9834;SDS011;69850;50.942;13.748;2023-06-01T17:47:26;11.50;;;5.07;;
9834;SDS011;69850;50.942;13.748;2023-06-01T17:50:46;10.65;;;4.85;;
9834;SDS011;69850;50.942;13.748;2023-06-01T17:54:07;7.45;;;4.53;;
9834;SDS011;69850;50.942;13.748;2023-06-01T17:57:28;23.52;;;4.72;;
9834;SDS011;69850;50.942;13.748;2023-06-01T18:00:49;8.60;;;4.13;;
9834;SDS011;69850;50.942;13.748;2023-06-01T18:04:10;6.97;;;4.13;;
9834;SDS011;69850;50.942;13.748;2023-06-01T18:07:30;4.97;;;3.90;;
9834;SDS011;69850;50.942;13.748;2023-06-01T18:10:51;7.57;;;3.50;;
9834;SDS011;69850;50.942;13.748;2023-06-01T18:14:12;5.97;;;3.92;;
9834;SDS011;69850;50.942;13.748;2023-06-01T18:17:32;5.65;;;3.50;;
9834;SDS011;69850;50.942;13.748;2023-06-01T18:20:54;4.93;;;3.60;;
9834;SDS011;69850;50.942;13.748;2023-06-01T18:24:15;4.47;;;3.42;;
9834;SDS011;69850;50.942;13.748;2023-06-01T18:27:35;5.28;;;3.50;;
9834;SDS011;69850;50.942;13.748;2023-06-01T18:30:56;5.18;;;3.55;;
9834;SDS011;69850;50.942;13.748;2023-06-01T18:34:16;6.72;;;3.40;;
9834;SDS011;69850;50.942;13.748;2023-06-01T18:37:37;6.35;;;3.78;;
9834;SDS011;69850;50.942;13.748;2023-06-01T18:40:58;7.30;;;3.90;;
9834;SDS011;69850;50.942;13.748;2023-06-01T18:44:18;5.28;;;3.65;;
9834;SDS011;69850;50.942;13.748;2023-06-01T18:47:39;6.93;;;4.15;;
9834;SDS011;69850;50.942;13.748;2023-06-01T18:51:00;5.70;;;3.90;;
9834;SDS011;69850;50.942;13.748;2023-06-01T18:54:20;10.60;;;4.20;;
9834;SDS011;69850;50.942;13.748;2023-06-01T18:57:41;7.85;;;4.40;;
9834;SDS011;69850;50.942;13.748;2023-06-01T19:01:02;6.47;;;4.10;;
9834;SDS011;69850;50.942;13.748;2023-06-01T19:04:22;7.38;;;4.18;;
9834;SDS011;69850;50.942;13.748;2023-06-01T19:07:43;7.95;;;4.40;;
9834;SDS011;69850;50.942;13.748;2023-06-01T19:11:05;6.30;;;4.25;;
9834;SDS011;69850;50.942;13.748;2023-06-01T19:14:26;5.88;;;4.05;;
9834;SDS011;69850;50.942;13.748;2023-06-01T19:17:47;7.57;;;4.53;;
9834;SDS011;69850;50.942;13.748;2023-06-01T19:24:30;8.80;;;4.57;;
9834;SDS011;69850;50.942;13.748;2023-06-01T19:27:50;6.55;;;4.53;;
9834;SDS011;69850;50.942;13.748;2023-06-01T19:31:11;6.72;;;4.28;;
9834;SDS011;69850;50.942;13.748;2023-06-01T19:34:32;7.88;;;4.47;;
9834;SDS011;69850;50.942;13.748;2023-06-01T19:37:54;12.85;;;4.70;;
9834;SDS011;69850;50.942;13.748;2023-06-01T19:41:15;7.75;;;5.07;;
9834;SDS011;69850;50.942;13.748;2023-06-01T19:44:36;8.13;;;5.22;;
9834;SDS011;69850;50.942;13.748;2023-06-01T19:47:56;9.80;;;6.00;;
9834;SDS011;69850;50.942;13.748;2023-06-01T19:51:18;9.18;;;5.22;;
9834;SDS011;69850;50.942;13.748;2023-06-01T19:54:40;11.30;;;5.25;;
9834;SDS011;69850;50.942;13.748;2023-06-01T19:58:01;9.50;;;5.60;;
9834;SDS011;69850;50.942;13.748;2023-06-01T20:01:23;10.35;;;5.38;;
9834;SDS011;69850;50.942;13.748;2023-06-01T20:04:44;8.93;;;5.53;;
9834;SDS011;69850;50.942;13.748;2023-06-01T20:08:06;11.85;;;5.75;;
9834;SDS011;69850;50.942;13.748;2023-06-01T20:11:28;11.50;;;5.25;;
9834;SDS011;69850;50.942;13.748;2023-06-01T20:14:49;11.90;;;6.28;;
9834;SDS011;69850;50.942;13.748;2023-06-01T20:18:10;14.48;;;5.95;;
9834;SDS011;69850;50.942;13.748;2023-06-01T20:21:31;14.48;;;6.22;;
9834;SDS011;69850;50.942;13.748;2023-06-01T20:24:51;11.00;;;6.10;;
9834;SDS011;69850;50.942;13.748;2023-06-01T20:28:12;10.50;;;6.03;;
9834;SDS011;69850;50.942;13.748;2023-06-01T20:31:33;11.77;;;6.78;;
9834;SDS011;69850;50.942;13.748;2023-06-01T20:34:54;9.43;;;6.20;;
9834;SDS011;69850;50.942;13.748;2023-06-01T20:38:15;12.98;;;6.53;;
9834;SDS011;69850;50.942;13.748;2023-06-01T20:41:35;12.40;;;6.70;;
9834;SDS011;69850;50.942;13.748;2023-06-01T20:44:56;13.30;;;6.72;;
9834;SDS011;69850;50.942;13.748;2023-06-01T20:48:25;13.00;;;7.07;;
9834;SDS011;69850;50.942;13.748;2023-06-01T20:51:51;14.05;;;7.85;;
9834;SDS011;69850;50.942;13.748;2023-06-01T20:55:12;15.13;;;7.22;;